Time;durP1;ratioP1;P1;durP2;ratioP2;P2;SDS_P1;SDS_P2;PMS_P1;PMS_P2;Temp;Humidity;BMP_temperature;BMP_pressure;BME280_temperature;BME280_humidity;BME280_pressure;Samples;Min_cycle;Max_cycle;Signal;HPM_P1;HPM_P2
2022/10/09 00:02:48;;;;;;;;;;;;;;;20.12;48.03;96464.22;10491863;28;1970;-45
2022/10/09 00:07:48;;;;;;;;;;;;;;;20.12;48.03;96474.75;10508084;28;2669;-44
2022/10/09 00:12:49;;;;;;;;;;;;;;;20.10;47.74;96468.94;10510545;28;2755;-45
2022/10/09 00:17:49;;;;;;;;;;;;;;;20.12;47.76;96473.94;10510246;28;3390;-44
2022/10/09 00:22:49;;;;;;;;;;;;;;;20.12;47.77;96479.19;10514236;28;2633;-46
2022/10/09 00:27:49;;;;;;;;;;;;;;;20.09;47.80;96464.72;10525622;28;1939;-44
2022/10/09 00:32:50;;;;;;;;;;;;;;;20.12;47.77;96460.78;10522715;28;2585;-46
2022/10/09 00:37:50;;;;;;;;;;;;;;;20.08;47.79;96457.88;10517269;28;1906;-45
2022/10/09 00:42:54;;;;;;;;;;;;;;;20.09;47.90;96448.16;10515889;28;2680;-45
2022/10/09 00:47:56;;;;;;;;;;;;;;;20.09;47.82;96443.66;10523478;28;1996;-45
2022/10/09 00:52:58;;;;;;;;;;;;;;;20.11;48.03;96446.81;10510584;28;2562;-47
2022/10/09 00:57:58;;;;;;;;;;;;;;;20.09;47.93;96450.78;10528192;28;2599;-46
2022/10/09 01:02:58;;;;;;;;;;;;;;;20.09;47.86;96438.38;10523994;28;2614;-46
2022/10/09 01:08:04;;;;;;;;;;;;;;;20.08;47.95;96428.91;10517712;28;2548;-46
2022/10/09 01:13:23;;;;;;;;;;;;;;;20.09;47.95;96425.22;10519048;28;2550;-45
2022/10/09 01:18:53;;;;;;;;;;;;;;;20.09;47.84;96427.09;10518544;28;2680;-47
2022/10/09 01:24:11;;;;;;;;;;;;;;;20.09;47.88;96416.56;10490448;28;2636;-44
2022/10/09 01:29:12;;;;;;;;;;;;;;;20.09;47.83;96416.56;10525661;28;1871;-46
2022/10/09 01:34:12;;;;;;;;;;;;;;;20.07;47.61;96414.16;10540517;28;2520;-45
2022/10/09 01:39:14;;;;;;;;;;;;;;;20.07;47.66;96405.50;10517359;28;2518;-46
2022/10/09 01:44:30;;;;;;;;;;;;;;;20.07;47.91;96401.00;10528901;28;1907;-44
2022/10/09 01:49:30;;;;;;;;;;;;;;;20.07;47.82;96394.97;10522613;28;2680;-45
2022/10/09 01:54:36;;;;;;;;;;;;;;;20.08;47.62;96396.53;10520488;28;2565;-44
2022/10/09 01:59:36;;;;;;;;;;;;;;;20.07;47.79;96389.69;10533191;28;2948;-48
2022/10/09 02:04:37;;;;;;;;;;;;;;;20.07;47.75;96384.44;10518577;28;2626;-47
2022/10/09 02:09:38;;;;;;;;;;;;;;;20.06;47.63;96381.00;10527838;28;2665;-44
2022/10/09 02:14:38;;;;;;;;;;;;;;;20.07;47.59;96360.75;10504235;28;2640;-44
2022/10/09 02:19:43;;;;;;;;;;;;;;;20.06;47.73;96364.41;10524232;28;2532;-44
2022/10/09 02:24:53;;;;;;;;;;;;;;;20.07;47.65;96360.75;10532468;28;1941;-45
2022/10/09 02:29:53;;;;;;;;;;;;;;;20.06;47.52;96359.16;10530956;28;2665;-47
2022/10/09 02:34:54;;;;;;;;;;;;;;;20.05;47.51;96354.97;10526777;28;2718;-45
2022/10/09 02:39:54;;;;;;;;;;;;;;;20.05;47.50;96352.31;10523871;28;2670;-48
2022/10/09 02:44:54;;;;;;;;;;;;;;;20.05;47.71;96347.06;10530214;28;2549;-46
2022/10/09 02:49:55;;;;;;;;;;;;;;;20.06;47.59;96349.44;10526772;28;1922;-45
2022/10/09 02:54:55;;;;;;;;;;;;;;;20.05;47.46;96352.31;10520082;28;1976;-47
2022/10/09 02:59:56;;;;;;;;;;;;;;;20.05;47.65;96352.31;10521475;28;2578;-49
2022/10/09 03:04:56;;;;;;;;;;;;;;;20.05;47.44;96349.69;10525459;28;2563;-46
2022/10/09 03:09:57;;;;;;;;;;;;;;;20.02;47.38;96339.66;10513979;28;2610;-48
2022/10/09 03:14:57;;;;;;;;;;;;;;;20.04;47.41;96341.00;10522187;28;2646;-46
2022/10/09 03:19:58;;;;;;;;;;;;;;;20.05;47.56;96342.56;10513152;28;2623;-46
2022/10/09 03:24:58;;;;;;;;;;;;;;;20.03;47.36;96338.63;10526097;28;2654;-45
2022/10/09 03:29:58;;;;;;;;;;;;;;;20.05;47.59;96337.31;10518922;28;2598;-47
2022/10/09 03:34:58;;;;;;;;;;;;;;;20.03;47.50;96336.75;10524482;28;2675;-48
2022/10/09 03:39:59;;;;;;;;;;;;;;;20.04;47.42;96329.66;10526084;28;2599;-46
2022/10/09 03:45:03;;;;;;;;;;;;;;;20.01;47.57;96332.81;10521947;28;2602;-46
2022/10/09 03:50:03;;;;;;;;;;;;;;;20.02;47.39;96331.75;10520751;28;2644;-45
2022/10/09 03:55:04;;;;;;;;;;;;;;;20.02;47.52;96326.50;10519853;28;2651;-46
2022/10/09 04:00:05;;;;;;;;;;;;;;;20.01;47.38;96327.56;10532148;28;2642;-45
2022/10/09 04:05:07;;;;;;;;;;;;;;;20.00;47.42;96336.50;10520385;28;2599;-45
2022/10/09 04:10:08;;;;;;;;;;;;;;;20.00;47.49;96329.41;10512327;28;2628;-48
2022/10/09 04:15:08;;;;;;;;;;;;;;;20.02;47.24;96321.25;10515589;28;2662;-47
2022/10/09 04:20:09;;;;;;;;;;;;;;;20.00;47.25;96318.88;10514011;28;2112;-45
2022/10/09 04:25:09;;;;;;;;;;;;;;;19.99;47.34;96319.13;10522288;28;2615;-46
2022/10/09 04:30:09;;;;;;;;;;;;;;;20.00;47.27;96323.34;10529629;28;2561;-46
2022/10/09 04:35:10;;;;;;;;;;;;;;;19.99;47.27;96319.13;10526397;28;2602;-46
2022/10/09 04:40:10;;;;;;;;;;;;;;;19.97;47.30;96318.59;10524140;28;2732;-48
2022/10/09 04:45:10;;;;;;;;;;;;;;;19.97;47.21;96326.50;10518497;28;2662;-46
2022/10/09 04:50:11;;;;;;;;;;;;;;;19.97;47.27;96329.13;10520507;28;2637;-47
2022/10/09 04:55:11;;;;;;;;;;;;;;;19.96;47.30;96320.44;10526312;28;2562;-47
2022/10/09 05:00:11;;;;;;;;;;;;;;;19.95;47.25;96323.28;10525049;28;2588;-48
2022/10/09 05:05:12;;;;;;;;;;;;;;;19.94;47.23;96314.63;10522870;28;2750;-50
2022/10/09 05:10:12;;;;;;;;;;;;;;;19.94;47.29;96308.56;10520460;28;2569;-47
2022/10/09 05:15:12;;;;;;;;;;;;;;;19.93;47.20;96305.13;10524219;28;2607;-49
2022/10/09 05:20:13;;;;;;;;;;;;;;;19.93;47.24;96301.72;10525551;28;1898;-46
2022/10/09 05:25:13;;;;;;;;;;;;;;;19.93;47.57;96304.34;10520394;28;2081;-46
2022/10/09 05:30:14;;;;;;;;;;;;;;;19.91;47.37;96301.97;10530184;28;2682;-46
2022/10/09 05:35:15;;;;;;;;;;;;;;;19.91;47.21;96298.53;10516526;28;2761;-47
2022/10/09 05:40:15;;;;;;;;;;;;;;;19.92;47.21;96294.88;10528495;28;2607;-48
2022/10/09 05:45:15;;;;;;;;;;;;;;;19.90;47.24;96307.50;10525355;28;2678;-46
2022/10/09 05:50:16;;;;;;;;;;;;;;;19.91;47.18;96309.88;10521298;28;2564;-46
2022/10/09 05:55:16;;;;;;;;;;;;;;;19.90;47.09;96299.59;10524899;28;2621;-46
2022/10/09 06:00:16;;;;;;;;;;;;;;;19.89;47.16;96301.44;10519384;28;1930;-48
2022/10/09 06:05:17;;;;;;;;;;;;;;;19.91;47.16;96299.34;10502105;28;1938;-47
2022/10/09 06:10:17;;;;;;;;;;;;;;;19.90;47.31;96302.25;10523965;28;2653;-46
2022/10/09 06:15:22;;;;;;;;;;;;;;;19.91;47.07;96298.53;10523599;28;2582;-47
2022/10/09 06:20:22;;;;;;;;;;;;;;;19.89;47.31;96301.44;10524530;28;2919;-48
2022/10/09 06:25:23;;;;;;;;;;;;;;;19.88;47.16;96302.50;10522401;28;2202;-49
2022/10/09 06:30:23;;;;;;;;;;;;;;;19.89;47.03;96305.91;10530710;28;2880;-44
2022/10/09 06:35:24;;;;;;;;;;;;;;;19.89;47.12;96311.97;10520611;28;2852;-44
2022/10/09 06:40:24;;;;;;;;;;;;;;;19.90;47.09;96320.66;10515369;28;2855;-44
2022/10/09 06:45:25;;;;;;;;;;;;;;;19.87;47.11;96319.31;10516563;28;2932;-46
2022/10/09 06:50:25;;;;;;;;;;;;;;;19.88;47.32;96322.75;10521004;28;3000;-44
2022/10/09 06:55:25;;;;;;;;;;;;;;;19.88;47.28;96317.50;10527864;28;2908;-45
2022/10/09 07:00:25;;;;;;;;;;;;;;;19.88;47.16;96307.75;10518873;28;2827;-45
2022/10/09 07:05:26;;;;;;;;;;;;;;;19.88;47.14;96314.84;10513117;28;2843;-48
2022/10/09 07:10:27;;;;;;;;;;;;;;;19.88;47.06;96312.22;10520013;28;2817;-48
2022/10/09 07:15:27;;;;;;;;;;;;;;;19.88;47.24;96322.75;10509511;28;3039;-44
2022/10/09 07:20:27;;;;;;;;;;;;;;;19.87;47.33;96323.78;10525149;28;2880;-47
2022/10/09 07:25:28;;;;;;;;;;;;;;;19.88;47.24;96326.19;10523038;28;2137;-45
2022/10/09 07:30:28;;;;;;;;;;;;;;;19.90;47.25;96333.81;10520631;28;1985;-45
2022/10/09 07:35:29;;;;;;;;;;;;;;;19.89;47.17;96330.38;10514431;28;3233;-45
2022/10/09 07:40:32;;;;;;;;;;;;;;;19.88;47.46;96328.00;10518057;28;1995;-46
2022/10/09 07:45:35;;;;;;;;;;;;;;;19.89;47.25;96316.44;10522484;28;2872;-45
2022/10/09 07:50:36;;;;;;;;;;;;;;;19.88;47.40;96326.19;10513880;28;2017;-47
2022/10/09 07:55:37;;;;;;;;;;;;;;;19.86;47.33;96325.66;10532357;28;2886;-45
2022/10/09 08:00:38;;;;;;;;;;;;;;;19.88;47.39;96326.19;10533471;28;1998;-47
2022/10/09 08:05:38;;;;;;;;;;;;;;;19.88;47.46;96325.38;10510055;28;3066;-46
2022/10/09 08:10:38;;;;;;;;;;;;;;;19.86;47.21;96324.84;10513518;28;2833;-49
2022/10/09 08:15:39;;;;;;;;;;;;;;;19.87;47.28;96321.94;10508693;28;2857;-45
2022/10/09 08:20:39;;;;;;;;;;;;;;;19.88;47.13;96323.53;10508653;28;1984;-46
2022/10/09 08:25:40;;;;;;;;;;;;;;;19.89;47.18;96311.16;10505338;28;2721;-47
2022/10/09 08:30:40;;;;;;;;;;;;;;;19.87;47.27;96308.78;10501978;28;2971;-46
2022/10/09 08:35:40;;;;;;;;;;;;;;;19.87;47.28;96308.00;10506321;28;2849;-45
2022/10/09 08:40:44;;;;;;;;;;;;;;;19.87;47.18;96308.00;10496292;28;2925;-46
2022/10/09 08:45:44;;;;;;;;;;;;;;;19.92;47.24;96311.47;10499502;28;2822;-47
2022/10/09 08:50:52;;;;;;;;;;;;;;;19.89;47.25;96305.91;10520826;28;2173;-44
2022/10/09 08:55:54;;;;;;;;;;;;;;;19.89;47.30;96301.44;10508680;28;3206;-46
2022/10/09 09:00:58;;;;;;;;;;;;;;;19.87;47.43;96302.72;10519070;28;2919;-47
2022/10/09 09:05:58;;;;;;;;;;;;;;;19.87;47.27;96286.94;10533258;28;2857;-48
2022/10/09 09:11:18;;;;;;;;;;;;;;;19.88;47.19;96285.91;10491167;28;2904;-47
2022/10/09 09:16:21;;;;;;;;;;;;;;;19.88;47.10;96270.94;10509846;28;2857;-48
2022/10/09 09:21:31;;;;;;;;;;;;;;;19.89;47.17;96264.59;10514641;28;2125;-46
2022/10/09 09:26:31;;;;;;;;;;;;;;;19.89;47.24;96269.88;10509429;28;2055;-46
2022/10/09 09:31:35;;;;;;;;;;;;;;;19.90;47.44;96270.66;10507049;28;2991;-46
2022/10/09 09:36:41;;;;;;;;;;;;;;;19.88;47.36;96265.66;10531789;27;2897;-47
2022/10/09 09:41:42;;;;;;;;;;;;;;;19.90;47.32;96265.41;10517009;28;2880;-48
2022/10/09 09:46:42;;;;;;;;;;;;;;;19.90;47.05;96265.41;10545339;28;2893;-47
2022/10/09 09:51:42;;;;;;;;;;;;;;;19.89;47.28;96259.34;10514187;28;2928;-45
2022/10/09 09:56:43;;;;;;;;;;;;;;;19.89;47.23;96253.28;10509875;28;1971;-47
2022/10/09 10:01:43;;;;;;;;;;;;;;;19.90;47.01;96252.25;10515841;28;1980;-51
2022/10/09 10:06:44;;;;;;;;;;;;;;;19.90;47.01;96247.78;10497836;28;2876;-48
2022/10/09 10:11:45;;;;;;;;;;;;;;;19.90;46.87;96244.34;10508641;28;2937;-46
2022/10/09 10:16:49;;;;;;;;;;;;;;;19.88;47.11;96239.34;10508207;28;2121;-46
2022/10/09 10:22:02;;;;;;;;;;;;;;;19.90;47.24;96239.09;10517595;28;2013;-46
2022/10/09 10:27:26;;;;;;;;;;;;;;;19.91;47.08;96228.31;10494986;28;2061;-45
2022/10/09 10:32:31;;;;;;;;;;;;;;;19.92;47.18;96229.91;10514878;28;2065;-46
2022/10/09 10:37:41;;;;;;;;;;;;;;;19.96;47.06;96224.91;10517428;28;2993;-46
2022/10/09 10:42:42;;;;;;;;;;;;;;;19.93;47.10;96218.31;10519805;28;2020;-46
2022/10/09 10:47:44;;;;;;;;;;;;;;;19.91;47.15;96217.78;10519292;28;2889;-49
2022/10/09 10:52:54;;;;;;;;;;;;;;;19.96;47.05;96211.75;10529401;28;2034;-48
2022/10/09 10:57:57;;;;;;;;;;;;;;;19.95;46.90;96212.78;10519327;28;2020;-47
2022/10/09 11:03:09;;;;;;;;;;;;;;;19.95;46.88;96202.25;10525103;28;3010;-46
2022/10/09 11:08:12;;;;;;;;;;;;;;;19.98;47.02;96204.38;10512280;28;2885;-46
2022/10/09 11:13:12;;;;;;;;;;;;;;;19.96;46.74;96202.03;10515108;28;2048;-50
2022/10/09 11:18:16;;;;;;;;;;;;;;;20.01;46.97;96203.88;10520162;28;2923;-49
2022/10/09 11:23:16;;;;;;;;;;;;;;;19.97;46.88;96197.56;10510901;28;2930;-51
2022/10/09 11:28:36;;;;;;;;;;;;;;;19.96;46.99;96186.22;10522483;28;2021;-48
2022/10/09 11:33:41;;;;;;;;;;;;;;;19.99;46.79;96187.56;10513941;28;2875;-47
2022/10/09 11:38:47;;;;;;;;;;;;;;;19.98;46.99;96176.25;10514881;28;2947;-46
2022/10/09 11:44:04;;;;;;;;;;;;;;;19.96;46.88;96174.91;10520721;27;2851;-48
2022/10/09 11:49:19;;;;;;;;;;;;;;;19.96;46.96;96159.13;10535733;28;2844;-53
2022/10/09 11:54:20;;;;;;;;;;;;;;;19.93;46.88;96149.09;10514460;28;2987;-47
2022/10/09 11:59:32;;;;;;;;;;;;;;;19.90;47.22;96147.00;10545905;27;2875;-47
2022/10/09 12:04:32;;;;;;;;;;;;;;;19.94;47.36;96145.44;10528531;28;1981;-46
2022/10/09 12:09:37;;;;;;;;;;;;;;;20.02;47.28;96143.09;10515621;28;2860;-47
2022/10/09 12:14:38;;;;;;;;;;;;;;;20.11;47.57;96146.00;10512546;28;2015;-51
2022/10/09 12:19:39;;;;;;;;;;;;;;;20.22;47.34;96131.81;10512495;28;2871;-59
2022/10/09 12:24:41;;;;;;;;;;;;;;;20.28;46.97;96126.31;10516424;28;2872;-47
2022/10/09 12:29:45;;;;;;;;;;;;;;;20.37;47.31;96115.25;10502712;28;2091;-52
2022/10/09 12:34:46;;;;;;;;;;;;;;;20.46;47.37;96114.47;10511165;28;2084;-68
2022/10/09 12:39:46;;;;;;;;;;;;;;;20.54;47.05;96111.31;10499879;28;2856;-45
2022/10/09 12:44:47;;;;;;;;;;;;;;;20.57;47.28;96100.25;10493298;28;2877;-47
2022/10/09 12:50:01;;;;;;;;;;;;;;;20.65;46.97;96091.81;10487221;28;2876;-43
2022/10/09 12:55:02;;;;;;;;;;;;;;;20.72;46.77;96094.16;10534238;28;2889;-46
2022/10/09 13:00:02;;;;;;;;;;;;;;;20.79;46.87;96084.16;10531195;28;2921;-45
2022/10/09 13:05:03;;;;;;;;;;;;;;;20.86;46.88;96085.44;10537506;27;2012;-45
2022/10/09 13:10:05;;;;;;;;;;;;;;;20.93;46.86;96070.16;10519824;28;2049;-47
2022/10/09 13:15:28;;;;;;;;;;;;;;;20.93;46.48;96064.88;10520562;28;2836;-47
2022/10/09 13:20:30;;;;;;;;;;;;;;;20.96;46.51;96051.16;10507775;28;2950;-45
2022/10/09 13:25:37;;;;;;;;;;;;;;;21.00;46.54;96051.41;10512649;28;2013;-50
2022/10/09 13:30:37;;;;;;;;;;;;;;;21.01;46.64;96064.34;10525796;28;2888;-47
2022/10/09 13:35:37;;;;;;;;;;;;;;;21.04;46.73;96060.41;10516120;28;3065;-47
2022/10/09 13:40:38;;;;;;;;;;;;;;;21.08;46.60;96058.81;10528598;28;2885;-68
2022/10/09 13:45:38;;;;;;;;;;;;;;;21.10;46.38;96056.69;10519205;28;2032;-46
2022/10/09 13:50:39;;;;;;;;;;;;;;;21.14;46.43;96056.94;10504151;28;2078;-49
2022/10/09 13:55:39;;;;;;;;;;;;;;;21.14;46.30;96054.31;10514716;28;2840;-46
2022/10/09 14:00:40;;;;;;;;;;;;;;;21.16;46.12;96046.91;10490962;28;2069;-45
2022/10/09 14:05:40;;;;;;;;;;;;;;;21.21;46.29;96039.75;10545078;27;2044;-45
2022/10/09 14:10:41;;;;;;;;;;;;;;;21.25;46.87;96045.28;10505276;28;2971;-46
2022/10/09 14:15:41;;;;;;;;;;;;;;;21.31;47.52;96034.44;10530299;28;2040;-46
2022/10/09 14:20:42;;;;;;;;;;;;;;;21.37;47.59;96032.59;10529956;28;2984;-46
2022/10/09 14:25:42;;;;;;;;;;;;;;;21.38;47.55;96018.34;10525376;28;2109;-46
2022/10/09 14:30:43;;;;;;;;;;;;;;;21.39;47.50;96020.69;10545620;28;2872;-44
2022/10/09 14:35:43;;;;;;;;;;;;;;;21.44;47.81;96006.69;10501762;28;2102;-46
2022/10/09 14:40:43;;;;;;;;;;;;;;;21.47;47.85;95993.78;10515527;28;2887;-46
2022/10/09 14:45:44;;;;;;;;;;;;;;;21.46;47.73;95992.19;10522060;28;2007;-45
2022/10/09 14:50:44;;;;;;;;;;;;;;;21.50;47.86;95987.94;10533739;28;2024;-45
2022/10/09 14:55:44;;;;;;;;;;;;;;;21.50;47.70;95987.13;10527691;28;1972;-44
2022/10/09 15:00:45;;;;;;;;;;;;;;;21.53;48.03;95984.75;10531646;28;2891;-46
2022/10/09 15:05:46;;;;;;;;;;;;;;;21.52;47.78;95983.19;10532716;27;1973;-47
2022/10/09 15:10:48;;;;;;;;;;;;;;;21.56;47.88;95986.03;10516112;28;2878;-43
2022/10/09 15:15:48;;;;;;;;;;;;;;;21.56;47.98;95975.50;10509812;28;2889;-45
2022/10/09 15:20:48;;;;;;;;;;;;;;;21.56;47.86;95963.09;10519205;28;3158;-46
2022/10/09 15:25:52;;;;;;;;;;;;;;;21.58;47.83;95966.25;10518143;28;2137;-45
2022/10/09 15:30:53;;;;;;;;;;;;;;;21.57;48.18;95969.16;10520501;28;2958;-44
2022/10/09 15:35:53;;;;;;;;;;;;;;;21.60;47.85;95968.59;10533911;28;2112;-44
2022/10/09 15:40:56;;;;;;;;;;;;;;;21.60;47.97;95964.13;10535843;28;2912;-43
2022/10/09 15:46:01;;;;;;;;;;;;;;;21.59;48.23;95956.50;10523485;28;2117;-44
2022/10/09 15:51:02;;;;;;;;;;;;;;;21.59;48.12;95952.00;10536951;28;3011;-45
2022/10/09 15:56:04;;;;;;;;;;;;;;;21.59;48.03;95951.22;10523730;28;2873;-44
2022/10/09 16:01:05;;;;;;;;;;;;;;;21.60;47.95;95953.56;10526295;28;3230;-44
2022/10/09 16:06:06;;;;;;;;;;;;;;;21.60;47.77;95956.22;10528240;28;2874;-48
2022/10/09 16:11:08;;;;;;;;;;;;;;;21.60;47.91;95948.28;10525420;28;2926;-45
2022/10/09 16:16:09;;;;;;;;;;;;;;;21.61;48.07;95949.88;10533751;28;2063;-45
2022/10/09 16:21:13;;;;;;;;;;;;;;;21.64;47.48;95944.03;10517439;28;2929;-45
2022/10/09 16:26:14;;;;;;;;;;;;;;;21.65;47.79;95939.56;10527558;28;2844;-45
2022/10/09 16:31:18;;;;;;;;;;;;;;;21.66;48.00;95928.72;10544837;28;2828;-45
2022/10/09 16:36:18;;;;;;;;;;;;;;;21.70;47.85;95919.19;10545373;28;2885;-45
2022/10/09 16:41:19;;;;;;;;;;;;;;;21.74;47.48;95911.53;10547081;28;2899;-44
2022/10/09 16:46:24;;;;;;;;;;;;;;;21.76;47.26;95909.41;10548653;28;2955;-43
2022/10/09 16:51:25;;;;;;;;;;;;;;;21.79;47.05;95922.03;10539212;28;2883;-45
2022/10/09 16:56:36;;;;;;;;;;;;;;;21.80;46.95;95920.97;10525233;28;2864;-44
2022/10/09 17:01:39;;;;;;;;;;;;;;;21.83;47.13;95912.53;10539335;28;2938;-44
2022/10/09 17:06:40;;;;;;;;;;;;;;;21.86;47.02;95914.63;10549867;28;1981;-45
2022/10/09 17:11:40;;;;;;;;;;;;;;;21.90;47.10;95915.66;10550022;28;2973;-43
2022/10/09 17:16:40;;;;;;;;;;;;;;;21.92;46.94;95904.81;10541431;28;2900;-48
2022/10/09 17:21:41;;;;;;;;;;;;;;;21.95;46.76;95912.94;10522749;28;2769;-44
2022/10/09 17:26:41;;;;;;;;;;;;;;;21.96;46.73;95919.81;10517221;28;1969;-45
2022/10/09 17:31:42;;;;;;;;;;;;;;;21.98;46.39;95928.25;10507641;28;2796;-48
2022/10/09 17:36:42;;;;;;;;;;;;;;;21.99;46.76;95927.16;10519477;28;2982;-43
2022/10/09 17:41:44;;;;;;;;;;;;;;;22.01;46.34;95909.19;10520660;28;2882;-44
2022/10/09 17:46:44;;;;;;;;;;;;;;;22.01;46.37;95906.53;10506538;28;2872;-44
2022/10/09 17:51:45;;;;;;;;;;;;;;;22.01;46.20;95906.53;10526803;28;1993;-44
2022/10/09 17:56:45;;;;;;;;;;;;;;;22.02;46.35;95900.22;10517462;28;2858;-47
2022/10/09 18:01:46;;;;;;;;;;;;;;;22.02;46.50;95908.13;10517883;28;2852;-44
2022/10/09 18:06:46;;;;;;;;;;;;;;;22.02;46.34;95913.41;10509097;28;2841;-45
2022/10/09 18:11:47;;;;;;;;;;;;;;;22.03;46.31;95909.69;10521093;28;2932;-44
2022/10/09 18:16:47;;;;;;;;;;;;;;;22.01;46.25;95906.53;10532703;28;2912;-45
2022/10/09 18:21:48;;;;;;;;;;;;;;;22.01;46.16;95901.28;10519052;28;2961;-44
2022/10/09 18:26:48;;;;;;;;;;;;;;;22.01;46.25;95903.91;10520215;28;2053;-44
2022/10/09 18:31:50;;;;;;;;;;;;;;;22.02;45.99;95891.50;10516238;28;2857;-46
2022/10/09 18:36:51;;;;;;;;;;;;;;;21.98;46.69;95888.66;10538557;28;2876;-47
2022/10/09 18:41:52;;;;;;;;;;;;;;;21.98;46.23;95888.66;10536470;28;2877;-44
2022/10/09 18:46:54;;;;;;;;;;;;;;;21.99;46.39;95879.66;10535553;28;2903;-46
2022/10/09 18:51:54;;;;;;;;;;;;;;;21.96;46.09;95867.03;10556077;27;2892;-45
2022/10/09 18:56:55;;;;;;;;;;;;;;;21.94;46.08;95866.50;10531961;28;2897;-45
2022/10/09 19:01:55;;;;;;;;;;;;;;;21.93;46.11;95859.66;10502000;28;2880;-46
2022/10/09 19:06:55;;;;;;;;;;;;;;;21.92;46.02;95859.94;10536207;28;2873;-46
2022/10/09 19:11:56;;;;;;;;;;;;;;;21.91;46.03;95853.09;10509266;28;2037;-44
2022/10/09 19:16:57;;;;;;;;;;;;;;;21.90;46.51;95859.44;10524113;28;2809;-44
2022/10/09 19:21:59;;;;;;;;;;;;;;;21.93;46.42;95859.66;10501100;28;2869;-44
2022/10/09 19:27:00;;;;;;;;;;;;;;;21.92;46.27;95850.16;10514797;28;2051;-46
2022/10/09 19:32:00;;;;;;;;;;;;;;;21.92;45.94;95852.03;10512719;28;3029;-43
2022/10/09 19:37:01;;;;;;;;;;;;;;;21.91;46.07;95842.53;10527842;28;2856;-45
2022/10/09 19:42:01;;;;;;;;;;;;;;;21.88;45.83;95843.88;10528259;28;2068;-47
2022/10/09 19:47:02;;;;;;;;;;;;;;;21.87;45.80;95839.66;10524624;28;2827;-44
2022/10/09 19:52:02;;;;;;;;;;;;;;;21.86;45.72;95835.47;10525071;28;2849;-43
2022/10/09 19:57:02;;;;;;;;;;;;;;;21.85;45.99;95831.22;10529347;28;2841;-43
2022/10/09 20:02:03;;;;;;;;;;;;;;;21.85;45.71;95841.78;10531326;28;2059;-46
2022/10/09 20:07:03;;;;;;;;;;;;;;;21.84;45.74;95837.59;10529067;28;2826;-44
2022/10/09 20:12:05;;;;;;;;;;;;;;;21.82;45.58;95823.88;10532340;28;1999;-46
2022/10/09 20:17:06;;;;;;;;;;;;;;;21.82;45.72;95827.28;10528273;28;2861;-45
2022/10/09 20:22:06;;;;;;;;;;;;;;;21.80;45.75;95826.75;10534365;28;2786;-44
2022/10/09 20:27:06;;;;;;;;;;;;;;;21.79;45.60;95833.09;10530006;28;2926;-46
2022/10/09 20:32:07;;;;;;;;;;;;;;;21.77;45.47;95829.16;10526815;28;2028;-45
2022/10/09 20:37:07;;;;;;;;;;;;;;;21.77;45.83;95826.53;10522932;28;2943;-47
2022/10/09 20:42:08;;;;;;;;;;;;;;;21.77;45.82;95826.53;10524752;28;2767;-49
2022/10/09 20:47:08;;;;;;;;;;;;;;;21.77;45.92;95826.53;10527495;28;2888;-43
2022/10/09 20:52:09;;;;;;;;;;;;;;;21.76;46.08;95819.69;10532801;28;2860;-43
2022/10/09 20:57:10;;;;;;;;;;;;;;;21.72;46.01;95818.69;10522389;28;3229;-47
2022/10/09 21:02:13;;;;;;;;;;;;;;;21.71;45.79;95817.09;10516764;28;2826;-44
2022/10/09 21:07:14;;;;;;;;;;;;;;;21.70;45.92;95815.53;10500238;28;2895;-44
2022/10/09 21:12:14;;;;;;;;;;;;;;;21.69;45.58;95812.09;10495197;28;2936;-45
2022/10/09 21:17:15;;;;;;;;;;;;;;;21.70;45.59;95818.19;10518129;28;2817;-46
2022/10/09 21:22:15;;;;;;;;;;;;;;;21.67;45.56;95816.88;10540551;27;2835;-43
2022/10/09 21:27:15;;;;;;;;;;;;;;;21.66;45.51;95812.66;10531941;28;2884;-46
2022/10/09 21:32:16;;;;;;;;;;;;;;;21.67;45.52;95810.81;10533351;28;2901;-45
2022/10/09 21:37:16;;;;;;;;;;;;;;;21.65;45.81;95812.94;10528369;28;2891;-42
2022/10/09 21:42:16;;;;;;;;;;;;;;;21.63;45.32;95815.06;10527287;28;1991;-47
2022/10/09 21:47:17;;;;;;;;;;;;;;;21.62;45.33;95814.28;10534959;28;2080;-46
2022/10/09 21:52:17;;;;;;;;;;;;;;;21.62;45.35;95809.00;10523528;28;2999;-45
2022/10/09 21:57:18;;;;;;;;;;;;;;;21.60;45.43;95813.75;10544720;28;2910;-45
2022/10/09 22:02:18;;;;;;;;;;;;;;;21.58;45.56;95807.97;10532234;28;2795;-45
2022/10/09 22:07:18;;;;;;;;;;;;;;;21.58;45.69;95801.91;10519921;28;1958;-45
2022/10/09 22:12:19;;;;;;;;;;;;;;;21.57;45.28;95803.00;10528516;28;2094;-44
2022/10/09 22:17:19;;;;;;;;;;;;;;;21.56;45.39;95817.22;10517657;28;2999;-46
2022/10/09 22:22:22;;;;;;;;;;;;;;;21.54;45.27;95814.88;10517510;28;2810;-45
2022/10/09 22:27:22;;;;;;;;;;;;;;;21.55;45.56;95810.41;10511690;28;2971;-45
2022/10/09 22:32:22;;;;;;;;;;;;;;;21.53;45.45;95801.97;10518950;28;2028;-45
2022/10/09 22:37:27;;;;;;;;;;;;;;;21.52;45.24;95809.09;10498629;28;2856;-47
2022/10/09 22:42:27;;;;;;;;;;;;;;;21.51;45.30;95807.53;10500784;28;3059;-46
2022/10/09 22:47:27;;;;;;;;;;;;;;;21.50;45.23;95807.78;10525377;28;2850;-45
2022/10/09 22:52:28;;;;;;;;;;;;;;;21.49;45.14;95804.38;10512786;28;2911;-45
2022/10/09 22:57:28;;;;;;;;;;;;;;;21.46;45.22;95802.28;10499675;28;2810;-45
2022/10/09 23:02:28;;;;;;;;;;;;;;;21.49;45.25;95808.88;10512398;28;2100;-44
2022/10/09 23:07:28;;;;;;;;;;;;;;;21.45;45.33;95810.50;10516523;28;2004;-44
2022/10/09 23:12:29;;;;;;;;;;;;;;;21.45;45.23;95810.50;10517142;28;2848;-46
2022/10/09 23:17:29;;;;;;;;;;;;;;;21.44;45.23;95809.69;10512555;28;2024;-46
2022/10/09 23:22:29;;;;;;;;;;;;;;;21.43;45.32;95812.63;10510029;28;2009;-44
2022/10/09 23:27:29;;;;;;;;;;;;;;;21.41;45.37;95809.47;10518823;28;1985;-48
2022/10/09 23:32:30;;;;;;;;;;;;;;;21.42;45.36;95819.72;10522500;28;2936;-45
2022/10/09 23:37:30;;;;;;;;;;;;;;;21.39;45.46;95808.97;10514396;28;2913;-43
2022/10/09 23:42:30;;;;;;;;;;;;;;;21.39;45.21;95814.22;10517345;28;2931;-46
2022/10/09 23:47:30;;;;;;;;;;;;;;;21.36;45.13;95810.28;10517151;28;2882;-47
2022/10/09 23:52:31;;;;;;;;;;;;;;;21.36;45.09;95814.78;10509266;28;2040;-43
2022/10/09 23:57:33;;;;;;;;;;;;;;;21.37;45.33;95811.09;10521447;28;2938;-44
